Time;durP1;ratioP1;P1;durP2;ratioP2;P2;SDS_P1;SDS_P2;PMS_P1;PMS_P2;Temp;Humidity;BMP_temperature;BMP_pressure;BME280_temperature;BME280_humidity;BME280_pressure;Samples;Min_cycle;Max_cycle;Signal;HPM_P1;HPM_P2
2020/02/08 00:02:05;;;;;;;3.26;2.85;;;;;;;18.66;37.17;101355.66;;;;-58
2020/02/08 00:05:05;;;;;;;3.38;3.06;;;;;;;18.64;37.22;101350.45;;;;-58
2020/02/08 00:08:05;;;;;;;2.96;2.74;;;;;;;18.64;37.22;101348.67;;;;-58
2020/02/08 00:11:05;;;;;;;3.15;2.85;;;;;;;18.62;37.19;101347.81;;;;-58
2020/02/08 00:14:05;;;;;;;3.29;2.99;;;;;;;18.61;37.27;101345.91;;;;-58
2020/02/08 00:17:05;;;;;;;3.61;3.09;;;;;;;18.59;37.19;101346.96;;;;-57
2020/02/08 00:20:05;;;;;;;3.18;2.88;;;;;;;18.58;37.24;101349.08;;;;-58
2020/02/08 00:23:05;;;;;;;3.26;2.96;;;;;;;18.57;37.25;101349.61;;;;-58
2020/02/08 00:27:08;;;;;;;3.20;2.90;;;;;;;18.56;37.26;101350.26;;;;-59
2020/02/08 00:30:21;;;;;;;3.11;2.81;;;;;;;18.54;37.26;101356.78;;;;-58
2020/02/08 00:38:49;;;;;;;3.29;3.01;;;;;;;18.51;37.29;101357.30;;;;-58
2020/02/08 00:41:07;;;;;;;3.23;2.89;;;;;;;18.50;37.27;101347.95;;;;-57
2020/02/08 00:44:05;;;;;;;3.17;2.87;;;;;;;18.48;37.26;101339.83;;;;-57
2020/02/08 00:47:05;;;;;;;3.27;2.97;;;;;;;18.47;37.27;101339.95;;;;-58
2020/02/08 00:50:05;;;;;;;3.43;3.13;;;;;;;18.45;37.34;101338.66;;;;-58
2020/02/08 00:53:04;;;;;;;3.21;2.91;;;;;;;18.45;37.33;101337.13;;;;-58
2020/02/08 00:56:05;;;;;;;3.09;2.79;;;;;;;18.44;37.33;101339.80;;;;-58
2020/02/08 00:59:04;;;;;;;3.21;2.91;;;;;;;18.43;37.31;101342.08;;;;-58
2020/02/08 01:02:05;;;;;;;3.01;2.71;;;;;;;18.42;37.30;101341.70;;;;-58
2020/02/08 01:05:04;;;;;;;3.09;2.75;;;;;;;18.40;37.34;101344.86;;;;-58
2020/02/08 01:08:04;;;;;;;2.89;2.69;;;;;;;18.39;37.31;101338.09;;;;-58
2020/02/08 01:11:10;;;;;;;3.27;2.97;;;;;;;18.38;37.34;101330.84;;;;-57
2020/02/08 01:14:16;;;;;;;3.39;3.09;;;;;;;18.38;37.34;101335.25;;;;-58
2020/02/08 01:17:09;;;;;;;3.14;2.84;;;;;;;18.36;37.36;101344.43;;;;-58
2020/02/08 01:23:08;;;;;;;3.30;3.00;;;;;;;18.34;37.35;101340.34;;;;-57
2020/02/08 01:26:34;;;;;;;3.24;2.94;;;;;;;18.33;37.33;101337.38;;;;-58
2020/02/08 01:29:21;;;;;;;3.02;2.63;;;;;;;18.32;37.38;101338.84;;;;-58
2020/02/08 01:32:11;;;;;;;3.42;3.12;;;;;;;18.32;37.34;101337.72;;;;-58
2020/02/08 01:40:28;;;;;;;3.41;3.11;;;;;;;18.27;37.40;101327.47;;;;-58
2020/02/08 01:44:25;;;;;;;3.38;3.08;;;;;;;18.26;37.44;101330.81;;;;-58
2020/02/08 01:47:15;;;;;;;3.29;2.99;;;;;;;18.25;37.42;101337.72;;;;-58
2020/02/08 01:54:39;;;;;;;3.33;3.01;;;;;;;18.24;37.39;101338.55;;;;-57
2020/02/08 01:57:12;;;;;;;3.65;3.10;;;;;;;18.23;37.41;101333.54;;;;-57
2020/02/08 02:00:38;;;;;;;3.40;3.10;;;;;;;18.22;37.43;101331.39;;;;-58
2020/02/08 02:03:29;;;;;;;3.27;2.97;;;;;;;18.20;37.45;101324.16;;;;-57
2020/02/08 02:07:11;;;;;;;3.16;2.89;;;;;;;18.20;37.46;101320.08;;;;-57
2020/02/08 02:10:13;;;;;;;3.92;3.26;;;;;;;18.18;37.46;101326.14;;;;-57
2020/02/08 02:13:12;;;;;;;3.11;2.81;;;;;;;18.17;37.45;101331.53;;;;-58
2020/02/08 02:16:10;;;;;;;3.20;2.92;;;;;;;18.16;37.47;101323.11;;;;-58
2020/02/08 02:24:14;;;;;;;3.29;2.99;;;;;;;18.14;37.43;101312.77;;;;-57
2020/02/08 02:30:22;;;;;;;3.11;2.81;;;;;;;18.12;37.51;101309.05;;;;-57
2020/02/08 02:36:54;;;;;;;3.81;2.89;;;;;;;18.10;37.49;101301.89;;;;-57
2020/02/08 02:48:08;;;;;;;3.37;3.07;;;;;;;18.07;37.53;101302.98;;;;-57
2020/02/08 02:51:05;;;;;;;3.75;3.26;;;;;;;18.06;37.48;101305.85;;;;-58
2020/02/08 02:54:34;;;;;;;3.15;2.83;;;;;;;18.06;37.44;101308.92;;;;-57
2020/02/08 02:57:27;;;;;;;3.13;2.90;;;;;;;18.04;37.51;101319.59;;;;-57
2020/02/08 03:00:23;;;;;;;3.35;3.03;;;;;;;18.04;37.51;101319.22;;;;-57
2020/02/08 03:07:04;;;;;;;3.21;2.91;;;;;;;18.02;37.54;101320.47;;;;-58
2020/02/08 03:13:21;;;;;;;3.73;2.94;;;;;;;18.00;37.54;101326.70;;;;-58
2020/02/08 03:16:14;;;;;;;3.27;2.97;;;;;;;17.99;37.50;101321.73;;;;-57
2020/02/08 03:19:16;;;;;;;3.05;2.82;;;;;;;17.99;37.52;101317.82;;;;-58
2020/02/08 03:27:12;;;;;;;3.38;3.08;;;;;;;17.97;37.56;101324.20;;;;-57
2020/02/08 03:30:34;;;;;;;3.53;3.23;;;;;;;17.96;37.50;101325.44;;;;-57
2020/02/08 03:33:21;;;;;;;3.43;3.13;;;;;;;17.96;37.57;101331.07;;;;-58
2020/02/08 03:36:17;;;;;;;3.29;2.99;;;;;;;17.95;37.49;101335.02;;;;-58
2020/02/08 03:44:13;;;;;;;3.52;3.04;;;;;;;17.93;37.57;101335.31;;;;-58
2020/02/08 03:47:17;;;;;;;3.39;3.09;;;;;;;17.91;37.56;101330.85;;;;-58
2020/02/08 03:50:11;;;;;;;3.39;2.96;;;;;;;17.91;37.50;101334.13;;;;-57
2020/02/08 03:53:28;;;;;;;3.39;3.09;;;;;;;17.90;37.50;101333.58;;;;-58
2020/02/08 03:56:28;;;;;;;3.18;2.88;;;;;;;17.89;37.57;101338.91;;;;-58
2020/02/08 03:59:24;;;;;;;3.31;3.01;;;;;;;17.88;37.57;101339.46;;;;-58
2020/02/08 04:02:05;;;;;;;3.20;2.91;;;;;;;17.88;37.58;101336.34;;;;-58
2020/02/08 04:05:05;;;;;;;3.95;3.08;;;;;;;17.86;37.53;101334.48;;;;-57
2020/02/08 04:08:05;;;;;;;3.45;2.93;;;;;;;17.86;37.56;101331.45;;;;-57
2020/02/08 04:11:05;;;;;;;3.22;2.92;;;;;;;17.85;37.59;101327.44;;;;-57
2020/02/08 04:14:05;;;;;;;3.61;3.24;;;;;;;17.84;37.54;101326.83;;;;-58
2020/02/08 04:17:05;;;;;;;3.73;3.02;;;;;;;17.84;37.58;101335.61;;;;-58
2020/02/08 04:20:05;;;;;;;3.31;3.01;;;;;;;17.83;37.56;101338.95;;;;-57
2020/02/08 04:23:05;;;;;;;3.45;3.15;;;;;;;17.83;37.57;101340.39;;;;-57
2020/02/08 04:26:05;;;;;;;3.75;3.30;;;;;;;17.82;37.58;101334.22;;;;-57
2020/02/08 04:29:05;;;;;;;3.38;3.08;;;;;;;17.81;37.60;101330.31;;;;-58
2020/02/08 04:32:05;;;;;;;3.31;3.01;;;;;;;17.81;37.56;101333.81;;;;-58
2020/02/08 04:35:05;;;;;;;3.61;3.31;;;;;;;17.79;37.56;101332.19;;;;-57
2020/02/08 04:38:05;;;;;;;3.41;3.11;;;;;;;17.80;37.58;101336.98;;;;-57
2020/02/08 04:41:05;;;;;;;3.28;2.98;;;;;;;17.79;37.56;101338.91;;;;-57
2020/02/08 04:44:05;;;;;;;3.46;3.11;;;;;;;17.79;37.58;101340.19;;;;-58
2020/02/08 04:47:05;;;;;;;3.24;2.94;;;;;;;17.80;37.60;101344.05;;;;-57
2020/02/08 04:50:05;;;;;;;3.14;2.81;;;;;;;17.80;37.62;101350.80;;;;-57
2020/02/08 04:53:05;;;;;;;3.40;3.10;;;;;;;17.82;37.63;101348.80;;;;-58
2020/02/08 04:56:05;;;;;;;3.30;3.00;;;;;;;17.83;37.62;101347.80;;;;-58
2020/02/08 04:59:05;;;;;;;3.15;2.85;;;;;;;17.85;37.60;101346.16;;;;-58
2020/02/08 05:02:05;;;;;;;3.45;3.08;;;;;;;17.86;37.62;101334.87;;;;-58
2020/02/08 05:05:05;;;;;;;3.85;3.15;;;;;;;17.88;37.70;101326.98;;;;-58
2020/02/08 05:08:05;;;;;;;3.22;2.93;;;;;;;17.91;37.76;101330.78;;;;-57
2020/02/08 05:11:05;;;;;;;2.93;2.73;;;;;;;17.93;37.80;101325.97;;;;-57
2020/02/08 05:14:05;;;;;;;3.10;2.80;;;;;;;17.97;37.78;101328.22;;;;-58
2020/02/08 05:17:05;;;;;;;2.82;2.59;;;;;;;17.99;37.83;101320.11;;;;-57
2020/02/08 05:20:05;;;;;;;2.91;2.61;;;;;;;18.03;37.77;101317.77;;;;-58
2020/02/08 05:23:05;;;;;;;3.04;2.73;;;;;;;18.06;37.79;101317.39;;;;-57
2020/02/08 05:30:05;;;;;;;2.79;2.59;;;;;;;18.14;37.75;101321.31;;;;-58
2020/02/08 05:33:05;;;;;;;2.90;2.63;;;;;;;18.18;37.75;101322.80;;;;-57
2020/02/08 05:36:05;;;;;;;2.81;2.61;;;;;;;18.21;37.72;101321.31;;;;-57
2020/02/08 05:39:05;;;;;;;2.81;2.51;;;;;;;18.22;37.68;101326.00;;;;-57
2020/02/08 05:42:05;;;;;;;2.80;2.57;;;;;;;18.24;37.71;101323.48;;;;-57
2020/02/08 05:45:05;;;;;;;2.79;2.59;;;;;;;18.27;37.70;101330.04;;;;-57
2020/02/08 05:48:05;;;;;;;2.87;2.50;;;;;;;18.27;37.71;101332.70;;;;-57
2020/02/08 05:51:05;;;;;;;2.71;2.51;;;;;;;18.29;37.71;101337.69;;;;-57
2020/02/08 05:54:05;;;;;;;2.84;2.56;;;;;;;18.29;37.75;101346.16;;;;-57
2020/02/08 05:57:05;;;;;;;2.83;2.63;;;;;;;18.29;37.75;101341.53;;;;-58
2020/02/08 06:00:05;;;;;;;3.02;2.62;;;;;;;18.30;37.72;101336.41;;;;-57
2020/02/08 06:03:05;;;;;;;2.67;2.47;;;;;;;18.31;37.73;101338.66;;;;-57
2020/02/08 06:06:05;;;;;;;2.91;2.62;;;;;;;18.30;37.75;101332.68;;;;-57
2020/02/08 06:09:05;;;;;;;3.43;2.76;;;;;;;18.31;37.73;101325.22;;;;-57
2020/02/08 06:12:05;;;;;;;2.91;2.59;;;;;;;18.30;37.75;101312.95;;;;-57
2020/02/08 06:15:05;;;;;;;3.00;2.70;;;;;;;18.30;37.75;101308.31;;;;-58
2020/02/08 06:18:05;;;;;;;2.91;2.66;;;;;;;18.30;37.75;101311.72;;;;-57
2020/02/08 06:21:05;;;;;;;2.71;2.51;;;;;;;18.30;37.78;101317.34;;;;-57
2020/02/08 06:24:05;;;;;;;2.70;2.50;;;;;;;18.30;37.74;101322.64;;;;-57
2020/02/08 06:27:05;;;;;;;2.66;2.46;;;;;;;18.29;37.78;101326.53;;;;-57
2020/02/08 06:30:05;;;;;;;2.99;2.75;;;;;;;18.29;37.75;101335.34;;;;-57
2020/02/08 06:33:05;;;;;;;2.53;2.33;;;;;;;18.29;37.79;101336.23;;;;-58
2020/02/08 06:36:05;;;;;;;2.93;2.64;;;;;;;18.29;37.79;101330.33;;;;-58
2020/02/08 06:39:05;;;;;;;2.83;2.63;;;;;;;18.28;37.73;101338.95;;;;-57
2020/02/08 06:42:05;;;;;;;2.82;2.62;;;;;;;18.28;37.63;101334.62;;;;-57
2020/02/08 06:45:05;;;;;;;2.73;2.53;;;;;;;18.27;37.68;101338.01;;;;-57
2020/02/08 06:48:05;;;;;;;3.07;2.77;;;;;;;18.27;37.67;101345.53;;;;-57
2020/02/08 06:51:05;;;;;;;2.95;2.65;;;;;;;18.26;37.73;101350.71;;;;-58
2020/02/08 06:54:05;;;;;;;2.87;2.57;;;;;;;18.26;37.56;101349.38;;;;-57
2020/02/08 06:57:05;;;;;;;3.18;2.78;;;;;;;18.24;37.61;101347.40;;;;-57
2020/02/08 07:00:05;;;;;;;3.07;2.76;;;;;;;18.25;37.67;101346.91;;;;-57
2020/02/08 07:03:05;;;;;;;3.34;2.67;;;;;;;18.24;37.68;101347.73;;;;-58
2020/02/08 07:06:05;;;;;;;3.24;2.94;;;;;;;18.24;37.64;101353.59;;;;-57
2020/02/08 07:09:05;;;;;;;3.17;2.87;;;;;;;18.23;37.54;101357.62;;;;-57
2020/02/08 07:12:05;;;;;;;3.01;2.73;;;;;;;18.22;37.60;101364.02;;;;-56
2020/02/08 07:15:05;;;;;;;3.30;2.85;;;;;;;18.21;37.50;101368.23;;;;-57
2020/02/08 07:18:05;;;;;;;3.37;3.03;;;;;;;18.21;37.07;101369.53;;;;-56
2020/02/08 07:21:05;;;;;;;5.67;3.33;;;;;;;18.20;37.25;101368.06;;;;-56
2020/02/08 07:24:05;;;;;;;3.48;2.89;;;;;;;18.20;37.44;101373.14;;;;-56
2020/02/08 07:27:05;;;;;;;5.59;3.47;;;;;;;18.20;37.39;101373.31;;;;-56
2020/02/08 07:30:05;;;;;;;3.53;3.23;;;;;;;18.19;37.32;101366.15;;;;-56
2020/02/08 07:33:05;;;;;;;4.43;3.14;;;;;;;18.19;37.33;101369.67;;;;-56
2020/02/08 07:36:05;;;;;;;4.55;2.98;;;;;;;18.19;37.38;101375.59;;;;-56
2020/02/08 07:39:05;;;;;;;3.49;3.19;;;;;;;18.19;37.44;101373.91;;;;-58
2020/02/08 07:42:05;;;;;;;7.02;3.53;;;;;;;18.18;37.36;101366.88;;;;-56
2020/02/08 07:45:05;;;;;;;4.95;3.41;;;;;;;18.18;37.42;101364.98;;;;-56
2020/02/08 07:48:05;;;;;;;4.27;3.29;;;;;;;18.18;37.35;101369.42;;;;-62
2020/02/08 07:51:05;;;;;;;4.92;3.19;;;;;;;18.18;37.33;101369.00;;;;-63
2020/02/08 07:54:05;;;;;;;4.21;3.00;;;;;;;18.18;37.41;101374.29;;;;-62
2020/02/08 07:57:05;;;;;;;5.88;3.37;;;;;;;18.18;37.42;101372.78;;;;-63
2020/02/08 08:00:05;;;;;;;3.77;3.19;;;;;;;18.18;37.44;101376.45;;;;-55
2020/02/08 08:03:05;;;;;;;5.13;3.32;;;;;;;18.17;37.39;101377.73;;;;-55
2020/02/08 08:06:05;;;;;;;5.51;3.25;;;;;;;18.18;37.45;101374.79;;;;-55
2020/02/08 08:09:05;;;;;;;4.26;3.27;;;;;;;18.18;37.47;101372.01;;;;-55
2020/02/08 08:12:05;;;;;;;3.41;3.11;;;;;;;18.17;37.49;101375.79;;;;-55
2020/02/08 08:15:05;;;;;;;3.79;3.09;;;;;;;18.18;37.44;101391.33;;;;-55
2020/02/08 08:18:05;;;;;;;3.51;3.21;;;;;;;18.18;37.40;101397.14;;;;-56
2020/02/08 08:21:05;;;;;;;3.37;3.07;;;;;;;18.18;37.49;101403.88;;;;-55
2020/02/08 08:24:05;;;;;;;3.55;3.22;;;;;;;18.18;37.46;101412.39;;;;-56
2020/02/08 08:27:05;;;;;;;3.93;2.97;;;;;;;18.18;37.42;101411.63;;;;-55
2020/02/08 08:30:05;;;;;;;3.33;3.03;;;;;;;18.18;37.47;101407.89;;;;-55
2020/02/08 08:33:05;;;;;;;3.53;2.97;;;;;;;18.17;37.54;101408.44;;;;-55
2020/02/08 08:36:05;;;;;;;3.41;3.10;;;;;;;18.18;37.46;101416.07;;;;-55
2020/02/08 08:39:05;;;;;;;3.45;3.07;;;;;;;18.17;37.47;101410.45;;;;-55
2020/02/08 08:43:05;;;;;;;3.49;3.12;;;;;;;18.17;37.47;101406.33;;;;-55
2020/02/08 08:48:05;;;;;;;5.05;3.08;;;;;;;18.19;37.63;101411.14;;;;-51
2020/02/08 08:57:31;;;;;;;3.55;2.78;;;;;;;18.29;38.40;101420.74;;;;-52
2020/02/08 09:03:30;;;;;;;5.61;3.06;;;;;;;18.39;38.54;101415.21;;;;-52
2020/02/08 09:12:57;;;;;;;3.48;2.90;;;;;;;18.58;38.42;101412.02;;;;-49
2020/02/08 09:15:58;;;;;;;5.30;2.94;;;;;;;18.65;38.50;101412.80;;;;-52
2020/02/08 09:20:57;;;;;;;3.13;2.83;;;;;;;18.73;38.77;101399.58;;;;-53
2020/02/08 09:23:57;;;;;;;5.81;3.04;;;;;;;18.75;38.43;101397.70;;;;-52
2020/02/08 09:28:57;;;;;;;3.91;2.86;;;;;;;18.83;38.52;101397.70;;;;-55
2020/02/08 09:31:57;;;;;;;3.01;2.69;;;;;;;18.84;38.16;101399.78;;;;-54
2020/02/08 09:34:57;;;;;;;6.19;2.86;;;;;;;18.88;38.34;101400.65;;;;-51
2020/02/08 09:39:57;;;;;;;3.32;2.79;;;;;;;18.92;38.30;101398.27;;;;-52
2020/02/08 09:42:57;;;;;;;4.45;2.64;;;;;;;18.96;38.13;101400.97;;;;-57
2020/02/08 09:47:57;;;;;;;3.09;2.73;;;;;;;18.97;38.08;101406.50;;;;-56
2020/02/08 09:51:57;;;;;;;3.19;2.89;;;;;;;18.98;37.98;101405.41;;;;-57
2020/02/08 09:56:59;;;;;;;3.38;2.69;;;;;;;18.99;37.84;101397.42;;;;-57
2020/02/08 10:02:57;;;;;;;3.05;2.70;;;;;;;19.03;37.80;101402.02;;;;-57
2020/02/08 10:05:57;;;;;;;3.70;2.76;;;;;;;19.03;37.74;101396.73;;;;-57
2020/02/08 10:15:24;;;;;;;5.29;2.83;;;;;;;19.12;37.67;101402.29;;;;-53
2020/02/08 10:19:23;;;;;;;3.64;3.28;;;;;;;19.16;37.47;101403.92;;;;-55
2020/02/08 10:23:24;;;;;;;5.05;3.79;;;;;;;19.21;37.42;101403.45;;;;-54
2020/02/08 10:27:24;;;;;;;4.36;3.47;;;;;;;19.25;37.29;101402.79;;;;-55
2020/02/08 10:33:23;;;;;;;5.50;3.58;;;;;;;19.31;37.22;101409.59;;;;-53
2020/02/08 10:42:50;;;;;;;4.57;3.63;;;;;;;19.42;37.29;101402.77;;;;-54
2020/02/08 10:48:50;;;;;;;4.97;3.79;;;;;;;19.47;37.03;101396.09;;;;-51
2020/02/08 10:58:16;;;;;;;8.59;3.63;;;;;;;19.59;37.45;101384.58;;;;-52
2020/02/08 11:03:16;;;;;;;5.08;3.23;;;;;;;19.64;37.35;101379.41;;;;-53
2020/02/08 11:09:15;;;;;;;5.24;3.36;;;;;;;19.71;37.66;101369.25;;;;-55
2020/02/08 11:14:16;;;;;;;3.38;2.99;;;;;;;19.77;37.72;101366.09;;;;-51
2020/02/08 11:17:15;;;;;;;4.94;3.12;;;;;;;19.79;37.75;101364.81;;;;-52
2020/02/08 11:20:16;;;;;;;4.41;2.93;;;;;;;19.81;37.50;101360.91;;;;-52
2020/02/08 11:23:16;;;;;;;3.38;3.09;;;;;;;19.86;37.95;101357.22;;;;-54
2020/02/08 11:26:16;;;;;;;4.65;3.36;;;;;;;19.86;37.58;101346.66;;;;-64
2020/02/08 11:29:15;;;;;;;3.77;3.03;;;;;;;19.88;37.69;101346.09;;;;-60
2020/02/08 11:32:15;;;;;;;3.31;2.86;;;;;;;19.90;37.91;101337.56;;;;-64
2020/02/08 11:35:15;;;;;;;3.23;2.93;;;;;;;19.92;37.65;101334.72;;;;-58
2020/02/08 11:38:16;;;;;;;4.01;2.88;;;;;;;19.93;37.55;101335.09;;;;-61
2020/02/08 11:41:15;;;;;;;3.90;3.25;;;;;;;19.95;37.80;101327.73;;;;-58
2020/02/08 11:44:16;;;;;;;3.05;2.75;;;;;;;19.96;37.62;101322.38;;;;-50
2020/02/08 11:47:15;;;;;;;3.15;2.83;;;;;;;20.01;37.87;101323.19;;;;-53
2020/02/08 11:50:15;;;;;;;3.64;2.95;;;;;;;19.96;37.46;101319.84;;;;-53
2020/02/08 11:53:15;;;;;;;4.43;2.96;;;;;;;19.94;37.49;101321.91;;;;-53
2020/02/08 11:56:16;;;;;;;3.10;2.76;;;;;;;19.94;37.38;101321.76;;;;-53
2020/02/08 11:59:16;;;;;;;3.27;2.79;;;;;;;19.92;37.33;101314.71;;;;-53
2020/02/08 12:02:16;;;;;;;3.45;2.90;;;;;;;19.91;37.38;101311.23;;;;-53
2020/02/08 12:05:16;;;;;;;2.95;2.65;;;;;;;19.91;37.39;101307.32;;;;-53
2020/02/08 12:08:16;;;;;;;3.23;2.90;;;;;;;19.91;37.31;101303.69;;;;-53
2020/02/08 12:11:15;;;;;;;3.35;2.65;;;;;;;19.92;37.24;101302.70;;;;-53
2020/02/08 12:14:15;;;;;;;2.99;2.61;;;;;;;19.92;37.31;101303.41;;;;-53
2020/02/08 12:17:15;;;;;;;3.27;2.78;;;;;;;19.91;37.25;101302.97;;;;-52
2020/02/08 12:20:16;;;;;;;3.06;2.76;;;;;;;19.91;37.23;101301.79;;;;-53
2020/02/08 12:23:16;;;;;;;3.91;2.69;;;;;;;19.91;37.27;101291.80;;;;-53
2020/02/08 12:26:26;;;;;;;3.31;2.64;;;;;;;19.91;37.22;101288.61;;;;-53
2020/02/08 12:29:16;;;;;;;2.93;2.67;;;;;;;19.90;37.21;101286.98;;;;-53
2020/02/08 12:32:15;;;;;;;2.99;2.66;;;;;;;19.90;37.24;101285.36;;;;-53
2020/02/08 12:35:16;;;;;;;3.87;2.61;;;;;;;19.90;37.26;101284.86;;;;-53
2020/02/08 12:38:16;;;;;;;2.77;2.53;;;;;;;19.90;37.17;101283.97;;;;-53
2020/02/08 12:41:16;;;;;;;3.81;2.60;;;;;;;19.91;37.21;101280.89;;;;-52
2020/02/08 12:44:16;;;;;;;2.87;2.62;;;;;;;19.93;37.22;101275.03;;;;-53
2020/02/08 12:47:15;;;;;;;2.85;2.43;;;;;;;19.93;37.19;101272.80;;;;-51
2020/02/08 12:50:15;;;;;;;2.99;2.70;;;;;;;19.93;37.25;101274.30;;;;-53
2020/02/08 12:53:15;;;;;;;2.79;2.51;;;;;;;19.93;37.20;101273.63;;;;-53
2020/02/08 12:56:15;;;;;;;2.88;2.58;;;;;;;19.93;37.25;101265.31;;;;-53
2020/02/08 12:59:30;;;;;;;2.83;2.55;;;;;;;19.94;37.26;101259.33;;;;-53
2020/02/08 13:03:00;;;;;;;3.03;2.73;;;;;;;19.96;37.27;101256.48;;;;-53
2020/02/08 13:09:26;;;;;;;2.60;2.40;;;;;;;19.97;37.30;101247.92;;;;-52
2020/02/08 13:20:22;;;;;;;3.85;2.44;;;;;;;20.03;37.22;101247.55;;;;-54
2020/02/08 13:23:29;;;;;;;2.66;2.40;;;;;;;20.03;37.20;101251.98;;;;-54
2020/02/08 13:26:31;;;;;;;2.67;2.47;;;;;;;20.03;37.23;101249.63;;;;-53
2020/02/08 13:29:41;;;;;;;3.24;2.50;;;;;;;20.03;37.17;101246.72;;;;-54
2020/02/08 13:36:31;;;;;;;7.33;3.39;;;;;;;20.03;36.37;101249.69;;;;-54
2020/02/08 13:39:24;;;;;;;3.39;2.71;;;;;;;20.02;36.76;101248.91;;;;-54
2020/02/08 13:42:28;;;;;;;3.18;2.76;;;;;;;20.02;36.92;101247.23;;;;-54
2020/02/08 13:45:25;;;;;;;3.19;2.64;;;;;;;20.02;37.04;101247.17;;;;-54
2020/02/08 13:48:20;;;;;;;2.84;2.47;;;;;;;20.02;37.05;101248.00;;;;-54
2020/02/08 13:54:40;;;;;;;2.90;2.50;;;;;;;20.03;37.16;101238.39;;;;-54
2020/02/08 13:57:26;;;;;;;3.24;2.59;;;;;;;20.05;37.09;101239.45;;;;-53
2020/02/08 14:00:26;;;;;;;2.74;2.50;;;;;;;20.05;37.14;101236.77;;;;-53
2020/02/08 14:06:22;;;;;;;3.17;2.52;;;;;;;20.06;37.18;101237.72;;;;-54
2020/02/08 14:09:40;;;;;;;2.75;2.39;;;;;;;20.08;37.20;101236.72;;;;-53
2020/02/08 14:13:24;;;;;;;2.85;2.58;;;;;;;20.09;37.16;101232.52;;;;-54
2020/02/08 14:19:23;;;;;;;2.77;2.39;;;;;;;20.11;37.17;101223.58;;;;-54
2020/02/08 14:31:26;;;;;;;4.65;2.63;;;;;;;20.12;37.18;101222.95;;;;-59
2020/02/08 14:34:31;;;;;;;2.87;2.20;;;;;;;20.16;37.54;101223.40;;;;-56
2020/02/08 14:45:35;;;;;;;2.59;2.39;;;;;;;20.25;37.79;101213.49;;;;-58
2020/02/08 14:48:23;;;;;;;2.97;2.40;;;;;;;20.25;37.36;101209.13;;;;-54
2020/02/08 14:51:24;;;;;;;2.87;2.39;;;;;;;20.24;37.32;101207.17;;;;-54
2020/02/08 14:54:29;;;;;;;2.92;2.47;;;;;;;20.23;37.25;101207.34;;;;-53
2020/02/08 14:57:38;;;;;;;2.69;2.49;;;;;;;20.22;37.25;101203.55;;;;-54
2020/02/08 15:00:29;;;;;;;3.39;2.51;;;;;;;20.22;37.31;101206.45;;;;-53
2020/02/08 15:08:35;;;;;;;2.53;2.33;;;;;;;20.22;37.28;101207.40;;;;-54
2020/02/08 15:11:32;;;;;;;2.73;2.29;;;;;;;20.21;37.30;101202.38;;;;-54
2020/02/08 15:14:37;;;;;;;2.60;2.40;;;;;;;20.21;37.26;101199.80;;;;-53
2020/02/08 15:17:43;;;;;;;2.85;2.40;;;;;;;20.22;37.26;101195.99;;;;-54
2020/02/08 15:20:24;;;;;;;2.43;2.23;;;;;;;20.21;37.27;101202.31;;;;-54
2020/02/08 15:23:34;;;;;;;2.64;2.43;;;;;;;20.22;37.28;101198.73;;;;-52
2020/02/08 15:32:23;;;;;;;2.41;2.19;;;;;;;20.22;37.32;101194.70;;;;-52
2020/02/08 15:35:25;;;;;;;2.31;2.11;;;;;;;20.22;37.34;101194.44;;;;-52
2020/02/08 15:38:21;;;;;;;2.57;2.20;;;;;;;20.22;37.29;101200.92;;;;-54
2020/02/08 15:55:23;;;;;;;2.57;2.16;;;;;;;20.21;37.37;101183.32;;;;-54
2020/02/08 16:02:23;;;;;;;2.46;2.26;;;;;;;20.22;37.29;101184.31;;;;-54
2020/02/08 16:05:26;;;;;;;2.52;2.32;;;;;;;20.23;37.29;101182.75;;;;-54
2020/02/08 16:08:37;;;;;;;2.38;2.17;;;;;;;20.22;37.31;101186.56;;;;-54
2020/02/08 16:11:40;;;;;;;2.69;2.17;;;;;;;20.22;37.28;101184.98;;;;-49
2020/02/08 16:19:44;;;;;;;3.52;2.55;;;;;;;20.29;37.31;101192.63;;;;-51
2020/02/08 16:27:30;;;;;;;3.33;2.32;;;;;;;20.29;37.34;101206.45;;;;-51
2020/02/08 16:30:25;;;;;;;2.65;2.36;;;;;;;20.30;37.35;101207.45;;;;-51
2020/02/08 16:33:22;;;;;;;2.55;2.33;;;;;;;20.29;37.33;101208.67;;;;-51
2020/02/08 16:36:33;;;;;;;2.57;2.36;;;;;;;20.28;37.35;101209.06;;;;-51
2020/02/08 16:39:23;;;;;;;3.05;2.50;;;;;;;20.29;37.37;101218.23;;;;-51
2020/02/08 16:42:37;;;;;;;3.15;2.40;;;;;;;20.28;37.35;101216.11;;;;-51
2020/02/08 16:45:32;;;;;;;5.99;2.60;;;;;;;20.30;37.37;101225.11;;;;-53
2020/02/08 17:04:38;;;;;;;2.63;2.41;;;;;;;20.45;37.49;101232.58;;;;-53
2020/02/08 17:09:06;;;;;;;6.55;2.82;;;;;;;20.48;37.66;101227.53;;;;-45
2020/02/08 17:12:25;;;;;;;5.21;3.25;;;;;;;20.56;38.15;101231.38;;;;-49
2020/02/08 17:16:00;;;;;;;5.23;3.32;;;;;;;20.57;37.87;101237.14;;;;-49
2020/02/08 17:28:27;;;;;;;5.41;3.13;;;;;;;20.64;37.98;101229.34;;;;-56
2020/02/08 17:39:25;;;;;;;4.26;2.99;;;;;;;20.68;37.67;101239.05;;;;-48
2020/02/08 17:42:39;;;;;;;3.67;3.11;;;;;;;20.71;37.90;101237.59;;;;-45
2020/02/08 17:45:30;;;;;;;3.79;3.04;;;;;;;20.71;37.77;101238.04;;;;-48
2020/02/08 17:58:27;;;;;;;7.33;4.72;;;;;;;20.63;36.55;101248.26;;;;-48
2020/02/08 18:04:27;;;;;;;5.27;3.98;;;;;;;20.71;37.20;101246.15;;;;-50
2020/02/08 18:07:31;;;;;;;4.64;4.17;;;;;;;20.71;37.21;101247.83;;;;-49
2020/02/08 18:10:31;;;;;;;4.49;3.97;;;;;;;20.73;37.27;101243.40;;;;-50
2020/02/08 18:13:29;;;;;;;4.57;3.83;;;;;;;20.73;37.42;101238.02;;;;-49
2020/02/08 18:16:23;;;;;;;5.02;4.11;;;;;;;20.75;37.48;101238.75;;;;-52
2020/02/08 18:19:27;;;;;;;5.70;3.97;;;;;;;20.77;37.25;101236.39;;;;-48
2020/02/08 18:27:23;;;;;;;4.97;4.07;;;;;;;20.81;37.26;101233.72;;;;-46
2020/02/08 18:31:05;;;;;;;7.81;4.73;;;;;;;20.80;36.69;101229.53;;;;-50
2020/02/08 18:34:39;;;;;;;5.24;3.87;;;;;;;20.78;36.97;101218.98;;;;-50
2020/02/08 18:37:33;;;;;;;4.57;3.84;;;;;;;20.78;36.96;101216.03;;;;-51
2020/02/08 18:40:25;;;;;;;4.19;3.76;;;;;;;20.78;37.03;101219.89;;;;-51
2020/02/08 18:43:58;;;;;;;5.07;3.88;;;;;;;20.77;37.08;101223.91;;;;-50
2020/02/08 18:51:33;;;;;;;4.55;4.01;;;;;;;20.74;37.08;101223.65;;;;-53
2020/02/08 18:54:31;;;;;;;5.85;3.80;;;;;;;20.74;37.08;101234.29;;;;-53
2020/02/08 19:03:31;;;;;;;4.95;3.63;;;;;;;20.75;37.11;101230.31;;;;-52
2020/02/08 19:06:37;;;;;;;4.21;3.81;;;;;;;20.74;37.12;101227.23;;;;-52
2020/02/08 19:18:28;;;;;;;4.13;3.73;;;;;;;20.71;37.18;101227.52;;;;-54
2020/02/08 19:22:41;;;;;;;4.65;3.53;;;;;;;20.71;37.18;101231.89;;;;-51
2020/02/08 19:25:28;;;;;;;3.71;3.38;;;;;;;20.71;37.14;101231.16;;;;-53
2020/02/08 19:30:14;;;;;;;4.69;3.68;;;;;;;20.72;37.19;101237.71;;;;-52
2020/02/08 19:41:25;;;;;;;4.17;3.75;;;;;;;20.72;37.20;101235.45;;;;-54
2020/02/08 19:44:30;;;;;;;4.41;3.68;;;;;;;20.72;37.20;101243.42;;;;-53
2020/02/08 19:47:22;;;;;;;3.93;3.50;;;;;;;20.74;37.20;101251.51;;;;-53
2020/02/08 19:54:34;;;;;;;4.48;3.75;;;;;;;20.78;37.37;101270.80;;;;-53
2020/02/08 19:57:24;;;;;;;6.05;3.81;;;;;;;20.81;37.45;101273.13;;;;-53
2020/02/08 20:01:00;;;;;;;4.60;3.90;;;;;;;20.82;37.50;101276.38;;;;-52
2020/02/08 20:03:27;;;;;;;4.54;4.03;;;;;;;20.83;37.40;101274.85;;;;-53
2020/02/08 20:06:41;;;;;;;4.93;3.92;;;;;;;20.84;37.41;101281.68;;;;-52
2020/02/08 20:09:44;;;;;;;4.91;4.03;;;;;;;20.83;37.27;101285.20;;;;-53
2020/02/08 20:13:45;;;;;;;5.56;4.05;;;;;;;20.83;37.31;101285.42;;;;-52
2020/02/08 20:26:27;;;;;;;4.25;3.83;;;;;;;20.83;37.42;101281.52;;;;-54
2020/02/08 20:29:47;;;;;;;4.66;4.06;;;;;;;20.79;37.21;101284.41;;;;-54
2020/02/08 20:32:36;;;;;;;5.03;3.79;;;;;;;20.77;37.15;101288.55;;;;-54
2020/02/08 20:35:35;;;;;;;4.29;3.87;;;;;;;20.75;37.10;101294.65;;;;-55
2020/02/08 20:38:43;;;;;;;6.11;4.09;;;;;;;20.74;37.33;101297.69;;;;-55
2020/02/08 20:46:22;;;;;;;5.39;3.81;;;;;;;20.71;37.53;101295.68;;;;-53
2020/02/08 20:49:40;;;;;;;5.24;3.71;;;;;;;20.68;37.55;101291.42;;;;-52
2020/02/08 20:52:21;;;;;;;4.16;3.70;;;;;;;20.67;37.60;101287.67;;;;-56
2020/02/08 20:59:25;;;;;;;4.37;3.97;;;;;;;20.63;37.66;101268.50;;;;-57
2020/02/08 21:09:30;;;;;;;4.70;4.00;;;;;;;20.59;37.79;101257.14;;;;-58
2020/02/08 21:15:23;;;;;;;6.29;4.17;;;;;;;20.56;37.81;101251.17;;;;-57
2020/02/08 21:18:32;;;;;;;4.45;3.75;;;;;;;20.55;37.93;101253.08;;;;-53
2020/02/08 21:21:32;;;;;;;4.12;3.72;;;;;;;20.54;37.90;101251.30;;;;-54
2020/02/08 21:24:32;;;;;;;5.70;3.83;;;;;;;20.52;37.90;101259.25;;;;-52
2020/02/08 21:27:30;;;;;;;4.05;3.63;;;;;;;20.49;37.89;101260.08;;;;-53
2020/02/08 21:30:43;;;;;;;4.77;3.86;;;;;;;20.48;37.89;101260.72;;;;-52
2020/02/08 21:33:28;;;;;;;4.19;3.70;;;;;;;20.45;37.86;101257.52;;;;-51
2020/02/08 21:36:30;;;;;;;4.32;3.73;;;;;;;20.44;37.94;101260.61;;;;-54
2020/02/08 21:42:30;;;;;;;4.61;3.86;;;;;;;20.41;37.94;101257.69;;;;-52
2020/02/08 21:45:29;;;;;;;4.43;3.97;;;;;;;20.38;37.93;101265.25;;;;-51
2020/02/08 21:48:36;;;;;;;4.24;3.84;;;;;;;20.36;37.89;101264.97;;;;-54
2020/02/08 21:51:27;;;;;;;4.21;3.80;;;;;;;20.34;37.96;101268.16;;;;-54
2020/02/08 21:54:28;;;;;;;4.88;4.01;;;;;;;20.32;37.98;101269.90;;;;-56
2020/02/08 21:57:39;;;;;;;4.69;4.17;;;;;;;20.31;38.06;101264.30;;;;-53
2020/02/08 22:00:55;;;;;;;5.17;4.04;;;;;;;20.27;37.87;101261.74;;;;-52
2020/02/08 22:03:26;;;;;;;4.31;3.81;;;;;;;20.24;37.86;101267.28;;;;-52
2020/02/08 22:06:20;;;;;;;4.88;3.87;;;;;;;20.22;37.87;101262.30;;;;-53
2020/02/08 22:09:16;;;;;;;4.28;3.84;;;;;;;20.18;37.83;101263.50;;;;-52
2020/02/08 22:12:16;;;;;;;4.09;3.69;;;;;;;20.15;37.80;101257.67;;;;-53
2020/02/08 22:15:16;;;;;;;3.78;3.47;;;;;;;20.12;37.80;101253.20;;;;-53
2020/02/08 22:18:16;;;;;;;5.94;3.99;;;;;;;20.09;37.77;101252.55;;;;-52